sensor_id;sensor_type;location;lat;lon;timestamp;temperature;humidity
25554;DHT22;13446;50.926;5.332;2023-07-31T00:00:34;18.80;99.90
25554;DHT22;13446;50.926;5.332;2023-07-31T00:03:00;18.60;99.90
25554;DHT22;13446;50.926;5.332;2023-07-31T00:05:25;18.50;99.90
25554;DHT22;13446;50.926;5.332;2023-07-31T00:07:51;18.50;99.90
25554;DHT22;13446;50.926;5.332;2023-07-31T00:10:16;18.60;99.90
25554;DHT22;13446;50.926;5.332;2023-07-31T00:12:42;18.50;99.90
25554;DHT22;13446;50.926;5.332;2023-07-31T00:15:08;18.40;99.90
25554;DHT22;13446;50.926;5.332;2023-07-31T00:17:34;18.40;99.90
25554;DHT22;13446;50.926;5.332;2023-07-31T00:19:59;18.30;99.90
25554;DHT22;13446;50.926;5.332;2023-07-31T00:22:25;18.40;99.90
25554;DHT22;13446;50.926;5.332;2023-07-31T00:24:51;18.40;99.90
25554;DHT22;13446;50.926;5.332;2023-07-31T00:27:16;18.50;99.90
25554;DHT22;13446;50.926;5.332;2023-07-31T00:29:42;18.50;99.90
25554;DHT22;13446;50.926;5.332;2023-07-31T00:32:07;18.50;99.90
25554;DHT22;13446;50.926;5.332;2023-07-31T00:34:33;18.40;99.90
25554;DHT22;13446;50.926;5.332;2023-07-31T00:36:58;18.40;99.90
25554;DHT22;13446;50.926;5.332;2023-07-31T00:39:24;18.30;99.90
25554;DHT22;13446;50.926;5.332;2023-07-31T00:41:49;18.10;99.90
25554;DHT22;13446;50.926;5.332;2023-07-31T00:44:15;18.00;99.90
25554;DHT22;13446;50.926;5.332;2023-07-31T00:46:41;18.10;99.90
25554;DHT22;13446;50.926;5.332;2023-07-31T00:49:06;18.10;99.90
25554;DHT22;13446;50.926;5.332;2023-07-31T00:51:32;18.10;99.90
25554;DHT22;13446;50.926;5.332;2023-07-31T00:53:58;18.20;99.90
25554;DHT22;13446;50.926;5.332;2023-07-31T00:56:23;18.30;99.90
25554;DHT22;13446;50.926;5.332;2023-07-31T00:58:49;18.30;99.90
25554;DHT22;13446;50.926;5.332;2023-07-31T01:01:15;18.50;99.90
25554;DHT22;13446;50.926;5.332;2023-07-31T01:03:40;18.60;99.90
25554;DHT22;13446;50.926;5.332;2023-07-31T01:06:18;18.60;99.90
25554;DHT22;13446;50.926;5.332;2023-07-31T01:11:25;18.50;99.90
25554;DHT22;13446;50.926;5.332;2023-07-31T01:13:52;18.60;99.90
25554;DHT22;13446;50.926;5.332;2023-07-31T01:16:18;18.50;99.90
25554;DHT22;13446;50.926;5.332;2023-07-31T01:18:44;18.60;99.90
25554;DHT22;13446;50.926;5.332;2023-07-31T01:21:21;18.70;99.90
25554;DHT22;13446;50.926;5.332;2023-07-31T01:23:51;18.70;99.90
25554;DHT22;13446;50.926;5.332;2023-07-31T01:26:23;18.60;99.90
25554;DHT22;13446;50.926;5.332;2023-07-31T01:31:29;18.60;99.90
25554;DHT22;13446;50.926;5.332;2023-07-31T01:33:56;18.70;99.90
25554;DHT22;13446;50.926;5.332;2023-07-31T01:36:22;18.60;99.90
25554;DHT22;13446;50.926;5.332;2023-07-31T01:38:48;18.70;99.90
25554;DHT22;13446;50.926;5.332;2023-07-31T01:41:18;18.80;99.90
25554;DHT22;13446;50.926;5.332;2023-07-31T01:43:45;18.80;99.90
25554;DHT22;13446;50.926;5.332;2023-07-31T01:46:10;18.90;99.90
25554;DHT22;13446;50.926;5.332;2023-07-31T01:48:36;18.90;99.90
25554;DHT22;13446;50.926;5.332;2023-07-31T01:51:02;18.90;99.90
25554;DHT22;13446;50.926;5.332;2023-07-31T01:53:30;18.80;99.90
25554;DHT22;13446;50.926;5.332;2023-07-31T01:55:56;18.90;99.90
25554;DHT22;13446;50.926;5.332;2023-07-31T01:58:21;19.00;99.90
25554;DHT22;13446;50.926;5.332;2023-07-31T02:00:47;19.00;99.90
25554;DHT22;13446;50.926;5.332;2023-07-31T02:03:12;19.10;99.90
25554;DHT22;13446;50.926;5.332;2023-07-31T02:05:48;19.00;99.90
25554;DHT22;13446;50.926;5.332;2023-07-31T02:08:13;19.10;99.90
25554;DHT22;13446;50.926;5.332;2023-07-31T02:10:39;19.10;99.90
25554;DHT22;13446;50.926;5.332;2023-07-31T02:13:05;19.10;99.90
25554;DHT22;13446;50.926;5.332;2023-07-31T02:15:31;19.00;99.90
25554;DHT22;13446;50.926;5.332;2023-07-31T02:17:56;19.00;99.90
25554;DHT22;13446;50.926;5.332;2023-07-31T02:20:22;19.00;99.90
25554;DHT22;13446;50.926;5.332;2023-07-31T02:22:47;19.00;99.90
25554;DHT22;13446;50.926;5.332;2023-07-31T02:25:13;19.00;99.90
25554;DHT22;13446;50.926;5.332;2023-07-31T02:27:39;19.00;99.90
25554;DHT22;13446;50.926;5.332;2023-07-31T02:30:04;19.00;99.90
25554;DHT22;13446;50.926;5.332;2023-07-31T02:32:30;18.90;99.90
25554;DHT22;13446;50.926;5.332;2023-07-31T02:34:56;18.90;99.90
25554;DHT22;13446;50.926;5.332;2023-07-31T02:37:21;18.80;99.90
25554;DHT22;13446;50.926;5.332;2023-07-31T02:39:47;18.80;99.90
25554;DHT22;13446;50.926;5.332;2023-07-31T02:42:12;18.90;99.90
25554;DHT22;13446;50.926;5.332;2023-07-31T02:44:38;18.90;99.90
25554;DHT22;13446;50.926;5.332;2023-07-31T02:47:04;18.90;99.90
25554;DHT22;13446;50.926;5.332;2023-07-31T02:49:29;18.90;99.90
25554;DHT22;13446;50.926;5.332;2023-07-31T02:51:55;18.90;99.90
25554;DHT22;13446;50.926;5.332;2023-07-31T02:54:20;18.90;99.90
25554;DHT22;13446;50.926;5.332;2023-07-31T02:56:47;19.00;99.90
25554;DHT22;13446;50.926;5.332;2023-07-31T02:59:12;19.00;99.90
25554;DHT22;13446;50.926;5.332;2023-07-31T03:01:38;19.00;99.90
25554;DHT22;13446;50.926;5.332;2023-07-31T03:04:04;19.20;99.90
25554;DHT22;13446;50.926;5.332;2023-07-31T03:06:29;19.00;99.90
25554;DHT22;13446;50.926;5.332;2023-07-31T03:08:55;19.00;99.90
25554;DHT22;13446;50.926;5.332;2023-07-31T03:11:20;18.90;99.90
25554;DHT22;13446;50.926;5.332;2023-07-31T03:13:46;18.90;99.90
25554;DHT22;13446;50.926;5.332;2023-07-31T03:16:11;18.90;99.90
25554;DHT22;13446;50.926;5.332;2023-07-31T03:18:37;18.90;99.90
25554;DHT22;13446;50.926;5.332;2023-07-31T03:21:02;19.00;99.90
25554;DHT22;13446;50.926;5.332;2023-07-31T03:23:29;18.90;99.90
25554;DHT22;13446;50.926;5.332;2023-07-31T03:26:01;18.80;99.90
25554;DHT22;13446;50.926;5.332;2023-07-31T03:28:29;18.90;99.90
25554;DHT22;13446;50.926;5.332;2023-07-31T03:30:54;18.80;99.90
25554;DHT22;13446;50.926;5.332;2023-07-31T03:33:20;18.90;99.90
25554;DHT22;13446;50.926;5.332;2023-07-31T03:35:46;18.80;99.90
25554;DHT22;13446;50.926;5.332;2023-07-31T03:38:11;18.80;99.90
25554;DHT22;13446;50.926;5.332;2023-07-31T03:40:37;18.90;99.90
25554;DHT22;13446;50.926;5.332;2023-07-31T03:43:02;18.80;99.90
25554;DHT22;13446;50.926;5.332;2023-07-31T03:45:28;18.90;99.90
25554;DHT22;13446;50.926;5.332;2023-07-31T03:47:53;18.90;99.90
25554;DHT22;13446;50.926;5.332;2023-07-31T03:50:20;18.90;99.90
25554;DHT22;13446;50.926;5.332;2023-07-31T03:52:46;18.90;99.90
25554;DHT22;13446;50.926;5.332;2023-07-31T03:55:11;18.90;99.90
25554;DHT22;13446;50.926;5.332;2023-07-31T03:57:37;18.90;99.90
25554;DHT22;13446;50.926;5.332;2023-07-31T04:00:02;19.00;99.90
25554;DHT22;13446;50.926;5.332;2023-07-31T04:02:28;19.00;99.90
25554;DHT22;13446;50.926;5.332;2023-07-31T04:04:54;19.00;99.90
25554;DHT22;13446;50.926;5.332;2023-07-31T04:07:20;18.90;99.90
25554;DHT22;13446;50.926;5.332;2023-07-31T04:09:45;18.90;99.90
25554;DHT22;13446;50.926;5.332;2023-07-31T04:12:11;18.90;99.90
25554;DHT22;13446;50.926;5.332;2023-07-31T04:14:36;18.90;99.90
25554;DHT22;13446;50.926;5.332;2023-07-31T04:17:02;18.90;99.90
25554;DHT22;13446;50.926;5.332;2023-07-31T04:19:28;18.90;99.90
25554;DHT22;13446;50.926;5.332;2023-07-31T04:21:53;18.90;99.90
25554;DHT22;13446;50.926;5.332;2023-07-31T04:24:19;18.90;99.90
25554;DHT22;13446;50.926;5.332;2023-07-31T04:26:50;18.80;99.90
25554;DHT22;13446;50.926;5.332;2023-07-31T04:29:15;18.80;99.90
25554;DHT22;13446;50.926;5.332;2023-07-31T04:31:41;18.80;99.90
25554;DHT22;13446;50.926;5.332;2023-07-31T04:34:07;18.90;99.90
25554;DHT22;13446;50.926;5.332;2023-07-31T04:36:33;18.80;99.90
25554;DHT22;13446;50.926;5.332;2023-07-31T04:38:58;18.70;99.90
25554;DHT22;13446;50.926;5.332;2023-07-31T04:41:24;18.80;99.90
25554;DHT22;13446;50.926;5.332;2023-07-31T04:43:49;18.80;99.90
25554;DHT22;13446;50.926;5.332;2023-07-31T04:46:15;18.80;99.90
25554;DHT22;13446;50.926;5.332;2023-07-31T04:48:41;18.80;99.90
25554;DHT22;13446;50.926;5.332;2023-07-31T04:51:06;18.90;99.90
25554;DHT22;13446;50.926;5.332;2023-07-31T04:53:32;18.90;99.90
25554;DHT22;13446;50.926;5.332;2023-07-31T04:55:57;18.80;99.90
25554;DHT22;13446;50.926;5.332;2023-07-31T04:58:23;18.70;99.90
25554;DHT22;13446;50.926;5.332;2023-07-31T05:00:48;18.70;99.90
25554;DHT22;13446;50.926;5.332;2023-07-31T05:03:14;18.50;99.90
25554;DHT22;13446;50.926;5.332;2023-07-31T05:05:40;18.60;99.90
25554;DHT22;13446;50.926;5.332;2023-07-31T05:08:05;18.60;99.90
25554;DHT22;13446;50.926;5.332;2023-07-31T05:10:31;18.50;99.90
25554;DHT22;13446;50.926;5.332;2023-07-31T05:12:56;18.30;99.90
25554;DHT22;13446;50.926;5.332;2023-07-31T05:15:22;18.20;99.90
25554;DHT22;13446;50.926;5.332;2023-07-31T05:17:47;18.30;99.90
25554;DHT22;13446;50.926;5.332;2023-07-31T05:20:13;18.40;99.90
25554;DHT22;13446;50.926;5.332;2023-07-31T05:22:40;18.40;99.90
25554;DHT22;13446;50.926;5.332;2023-07-31T05:25:06;18.50;99.90
25554;DHT22;13446;50.926;5.332;2023-07-31T05:27:32;18.50;99.90
25554;DHT22;13446;50.926;5.332;2023-07-31T05:29:57;18.50;99.90
25554;DHT22;13446;50.926;5.332;2023-07-31T05:32:23;18.40;99.90
25554;DHT22;13446;50.926;5.332;2023-07-31T05:34:52;18.60;99.90
25554;DHT22;13446;50.926;5.332;2023-07-31T05:37:18;18.60;99.90
25554;DHT22;13446;50.926;5.332;2023-07-31T05:39:43;18.60;99.90
25554;DHT22;13446;50.926;5.332;2023-07-31T05:42:09;18.50;99.90
25554;DHT22;13446;50.926;5.332;2023-07-31T05:44:34;18.60;99.90
25554;DHT22;13446;50.926;5.332;2023-07-31T05:47:00;18.70;99.90
25554;DHT22;13446;50.926;5.332;2023-07-31T05:49:25;18.60;99.90
25554;DHT22;13446;50.926;5.332;2023-07-31T05:51:51;18.70;99.90
25554;DHT22;13446;50.926;5.332;2023-07-31T05:54:17;18.70;99.90
25554;DHT22;13446;50.926;5.332;2023-07-31T05:56:42;18.60;99.90
25554;DHT22;13446;50.926;5.332;2023-07-31T05:59:08;18.70;99.90
25554;DHT22;13446;50.926;5.332;2023-07-31T06:01:34;18.60;99.90
25554;DHT22;13446;50.926;5.332;2023-07-31T06:03:59;18.70;99.90
25554;DHT22;13446;50.926;5.332;2023-07-31T06:06:25;18.70;99.90
25554;DHT22;13446;50.926;5.332;2023-07-31T06:08:51;18.70;99.90
25554;DHT22;13446;50.926;5.332;2023-07-31T06:11:16;18.70;99.90
25554;DHT22;13446;50.926;5.332;2023-07-31T06:13:42;18.70;99.90
25554;DHT22;13446;50.926;5.332;2023-07-31T06:16:09;18.70;99.90
25554;DHT22;13446;50.926;5.332;2023-07-31T06:18:35;18.50;99.90
25554;DHT22;13446;50.926;5.332;2023-07-31T06:21:01;18.40;99.90
25554;DHT22;13446;50.926;5.332;2023-07-31T06:23:26;18.40;99.90
25554;DHT22;13446;50.926;5.332;2023-07-31T06:25:52;18.40;99.90
25554;DHT22;13446;50.926;5.332;2023-07-31T06:28:17;18.40;99.90
25554;DHT22;13446;50.926;5.332;2023-07-31T06:30:43;18.40;99.90
25554;DHT22;13446;50.926;5.332;2023-07-31T06:33:08;18.40;99.90
25554;DHT22;13446;50.926;5.332;2023-07-31T06:35:34;18.20;99.90
25554;DHT22;13446;50.926;5.332;2023-07-31T06:38:00;18.10;99.90
25554;DHT22;13446;50.926;5.332;2023-07-31T06:40:26;18.00;99.90
25554;DHT22;13446;50.926;5.332;2023-07-31T06:42:52;18.00;99.90
25554;DHT22;13446;50.926;5.332;2023-07-31T06:45:18;18.00;99.90
25554;DHT22;13446;50.926;5.332;2023-07-31T06:47:43;18.00;99.90
25554;DHT22;13446;50.926;5.332;2023-07-31T06:50:09;18.00;99.90
25554;DHT22;13446;50.926;5.332;2023-07-31T06:52:36;18.00;99.90
25554;DHT22;13446;50.926;5.332;2023-07-31T06:55:17;18.00;99.90
25554;DHT22;13446;50.926;5.332;2023-07-31T06:57:50;18.10;99.90
25554;DHT22;13446;50.926;5.332;2023-07-31T07:00:16;18.10;99.90
25554;DHT22;13446;50.926;5.332;2023-07-31T07:02:42;18.10;99.90
25554;DHT22;13446;50.926;5.332;2023-07-31T07:05:08;18.10;99.90
25554;DHT22;13446;50.926;5.332;2023-07-31T07:07:34;18.20;99.90
25554;DHT22;13446;50.926;5.332;2023-07-31T07:09:59;18.30;99.90
25554;DHT22;13446;50.926;5.332;2023-07-31T07:12:25;18.30;99.90
25554;DHT22;13446;50.926;5.332;2023-07-31T07:14:51;18.40;99.90
25554;DHT22;13446;50.926;5.332;2023-07-31T07:17:18;18.50;99.90
25554;DHT22;13446;50.926;5.332;2023-07-31T07:19:44;18.50;99.90
25554;DHT22;13446;50.926;5.332;2023-07-31T07:22:11;18.50;99.90
25554;DHT22;13446;50.926;5.332;2023-07-31T07:24:36;18.50;99.90
25554;DHT22;13446;50.926;5.332;2023-07-31T07:27:02;18.60;99.90
25554;DHT22;13446;50.926;5.332;2023-07-31T07:29:28;18.80;99.90
25554;DHT22;13446;50.926;5.332;2023-07-31T07:31:53;18.90;99.90
25554;DHT22;13446;50.926;5.332;2023-07-31T07:34:19;19.00;99.90
25554;DHT22;13446;50.926;5.332;2023-07-31T07:36:44;19.20;99.90
25554;DHT22;13446;50.926;5.332;2023-07-31T07:39:10;19.20;99.90
25554;DHT22;13446;50.926;5.332;2023-07-31T07:41:36;19.20;99.90
25554;DHT22;13446;50.926;5.332;2023-07-31T07:44:02;19.20;99.90
25554;DHT22;13446;50.926;5.332;2023-07-31T07:46:27;19.00;99.90
25554;DHT22;13446;50.926;5.332;2023-07-31T07:48:53;19.00;99.90
25554;DHT22;13446;50.926;5.332;2023-07-31T07:51:18;19.00;99.90
25554;DHT22;13446;50.926;5.332;2023-07-31T07:53:44;18.80;99.90
25554;DHT22;13446;50.926;5.332;2023-07-31T07:56:09;18.80;99.90
25554;DHT22;13446;50.926;5.332;2023-07-31T07:58:35;18.80;99.90
25554;DHT22;13446;50.926;5.332;2023-07-31T08:01:00;18.90;99.90
25554;DHT22;13446;50.926;5.332;2023-07-31T08:03:26;18.90;99.90
25554;DHT22;13446;50.926;5.332;2023-07-31T08:05:51;19.00;99.90
25554;DHT22;13446;50.926;5.332;2023-07-31T08:08:17;18.90;99.90
25554;DHT22;13446;50.926;5.332;2023-07-31T08:10:42;19.00;99.90
25554;DHT22;13446;50.926;5.332;2023-07-31T08:13:11;18.90;99.90
25554;DHT22;13446;50.926;5.332;2023-07-31T08:15:37;19.00;99.90
25554;DHT22;13446;50.926;5.332;2023-07-31T08:18:02;19.10;99.90
25554;DHT22;13446;50.926;5.332;2023-07-31T08:20:28;19.10;99.90
25554;DHT22;13446;50.926;5.332;2023-07-31T08:22:53;19.20;99.90
25554;DHT22;13446;50.926;5.332;2023-07-31T08:25:19;19.20;99.90
25554;DHT22;13446;50.926;5.332;2023-07-31T08:27:45;19.20;99.90
25554;DHT22;13446;50.926;5.332;2023-07-31T08:30:11;19.20;99.90
25554;DHT22;13446;50.926;5.332;2023-07-31T08:32:37;19.20;99.90
25554;DHT22;13446;50.926;5.332;2023-07-31T08:35:02;19.30;99.90
25554;DHT22;13446;50.926;5.332;2023-07-31T08:37:28;19.40;99.90
25554;DHT22;13446;50.926;5.332;2023-07-31T08:39:54;19.30;99.90
25554;DHT22;13446;50.926;5.332;2023-07-31T08:42:20;19.30;99.90
25554;DHT22;13446;50.926;5.332;2023-07-31T08:44:46;19.40;99.90
25554;DHT22;13446;50.926;5.332;2023-07-31T08:47:11;19.30;99.90
25554;DHT22;13446;50.926;5.332;2023-07-31T08:49:37;19.20;99.90
25554;DHT22;13446;50.926;5.332;2023-07-31T08:52:03;19.20;99.90
25554;DHT22;13446;50.926;5.332;2023-07-31T08:54:29;19.10;99.90
25554;DHT22;13446;50.926;5.332;2023-07-31T08:56:56;19.10;99.90
25554;DHT22;13446;50.926;5.332;2023-07-31T08:59:22;19.10;99.90
25554;DHT22;13446;50.926;5.332;2023-07-31T09:01:48;19.10;99.90
25554;DHT22;13446;50.926;5.332;2023-07-31T09:04:14;19.20;99.90
25554;DHT22;13446;50.926;5.332;2023-07-31T09:06:42;19.40;99.90
25554;DHT22;13446;50.926;5.332;2023-07-31T09:09:07;19.50;99.90
25554;DHT22;13446;50.926;5.332;2023-07-31T09:11:34;19.60;99.90
25554;DHT22;13446;50.926;5.332;2023-07-31T09:14:00;19.60;99.90
25554;DHT22;13446;50.926;5.332;2023-07-31T09:16:28;19.60;99.90
25554;DHT22;13446;50.926;5.332;2023-07-31T09:18:57;19.80;99.90
25554;DHT22;13446;50.926;5.332;2023-07-31T09:21:24;19.80;99.90
25554;DHT22;13446;50.926;5.332;2023-07-31T09:23:51;19.80;99.90
25554;DHT22;13446;50.926;5.332;2023-07-31T09:26:32;20.00;99.90
25554;DHT22;13446;50.926;5.332;2023-07-31T09:28:59;19.90;99.90
25554;DHT22;13446;50.926;5.332;2023-07-31T09:31:45;19.80;99.90
25554;DHT22;13446;50.926;5.332;2023-07-31T09:34:11;19.80;99.90
25554;DHT22;13446;50.926;5.332;2023-07-31T09:36:43;19.70;99.90
25554;DHT22;13446;50.926;5.332;2023-07-31T09:39:10;19.50;99.90
25554;DHT22;13446;50.926;5.332;2023-07-31T09:41:40;19.60;99.90
25554;DHT22;13446;50.926;5.332;2023-07-31T09:44:06;19.60;99.90
25554;DHT22;13446;50.926;5.332;2023-07-31T09:46:32;19.60;99.90
25554;DHT22;13446;50.926;5.332;2023-07-31T09:49:03;19.70;99.90
25554;DHT22;13446;50.926;5.332;2023-07-31T09:51:30;19.80;99.90
25554;DHT22;13446;50.926;5.332;2023-07-31T09:53:56;20.00;99.90
25554;DHT22;13446;50.926;5.332;2023-07-31T09:56:22;20.00;99.90
25554;DHT22;13446;50.926;5.332;2023-07-31T09:58:48;19.90;99.90
25554;DHT22;13446;50.926;5.332;2023-07-31T10:01:14;20.00;99.90
25554;DHT22;13446;50.926;5.332;2023-07-31T10:03:40;20.10;99.90
25554;DHT22;13446;50.926;5.332;2023-07-31T10:06:06;20.10;99.90
25554;DHT22;13446;50.926;5.332;2023-07-31T10:08:34;20.30;99.90
25554;DHT22;13446;50.926;5.332;2023-07-31T10:11:01;20.40;99.90
25554;DHT22;13446;50.926;5.332;2023-07-31T10:13:28;20.50;99.90
25554;DHT22;13446;50.926;5.332;2023-07-31T10:15:54;20.50;99.90
25554;DHT22;13446;50.926;5.332;2023-07-31T10:18:23;20.40;99.90
25554;DHT22;13446;50.926;5.332;2023-07-31T10:20:49;20.50;99.90
25554;DHT22;13446;50.926;5.332;2023-07-31T10:23:15;20.30;99.90
25554;DHT22;13446;50.926;5.332;2023-07-31T10:25:41;20.30;99.90
25554;DHT22;13446;50.926;5.332;2023-07-31T10:28:08;20.30;99.90
25554;DHT22;13446;50.926;5.332;2023-07-31T10:30:34;20.50;99.90
25554;DHT22;13446;50.926;5.332;2023-07-31T10:33:03;20.60;99.90
25554;DHT22;13446;50.926;5.332;2023-07-31T10:35:29;20.50;99.90
25554;DHT22;13446;50.926;5.332;2023-07-31T10:37:55;20.60;99.90
25554;DHT22;13446;50.926;5.332;2023-07-31T10:40:24;20.50;99.90
25554;DHT22;13446;50.926;5.332;2023-07-31T10:42:51;20.50;99.90
25554;DHT22;13446;50.926;5.332;2023-07-31T10:47:57;20.50;99.90
25554;DHT22;13446;50.926;5.332;2023-07-31T10:50:24;20.70;99.90
25554;DHT22;13446;50.926;5.332;2023-07-31T10:52:50;21.00;99.90
25554;DHT22;13446;50.926;5.332;2023-07-31T10:55:23;21.20;99.90
25554;DHT22;13446;50.926;5.332;2023-07-31T10:57:48;21.10;99.90
25554;DHT22;13446;50.926;5.332;2023-07-31T11:00:18;21.20;99.90
25554;DHT22;13446;50.926;5.332;2023-07-31T11:02:54;21.10;99.90
25554;DHT22;13446;50.926;5.332;2023-07-31T11:05:21;21.10;99.90
25554;DHT22;13446;50.926;5.332;2023-07-31T11:07:50;21.30;99.90
25554;DHT22;13446;50.926;5.332;2023-07-31T11:10:16;21.50;99.90
25554;DHT22;13446;50.926;5.332;2023-07-31T11:12:42;21.50;99.90
25554;DHT22;13446;50.926;5.332;2023-07-31T11:15:08;21.40;99.90
25554;DHT22;13446;50.926;5.332;2023-07-31T11:17:37;21.50;99.90
25554;DHT22;13446;50.926;5.332;2023-07-31T11:20:03;21.70;99.90
25554;DHT22;13446;50.926;5.332;2023-07-31T11:22:29;21.70;99.90
25554;DHT22;13446;50.926;5.332;2023-07-31T11:24:55;21.70;99.90
25554;DHT22;13446;50.926;5.332;2023-07-31T11:27:21;21.90;99.90
25554;DHT22;13446;50.926;5.332;2023-07-31T11:29:47;22.00;99.90
25554;DHT22;13446;50.926;5.332;2023-07-31T11:32:18;22.10;99.90
25554;DHT22;13446;50.926;5.332;2023-07-31T11:34:51;22.00;99.90
25554;DHT22;13446;50.926;5.332;2023-07-31T11:37:16;22.10;99.90
25554;DHT22;13446;50.926;5.332;2023-07-31T11:39:42;22.10;99.90
25554;DHT22;13446;50.926;5.332;2023-07-31T11:42:08;22.30;99.90
25554;DHT22;13446;50.926;5.332;2023-07-31T11:44:37;22.40;99.90
25554;DHT22;13446;50.926;5.332;2023-07-31T11:47:03;22.40;99.90
25554;DHT22;13446;50.926;5.332;2023-07-31T11:49:29;22.20;99.90
25554;DHT22;13446;50.926;5.332;2023-07-31T11:51:54;22.20;99.90
25554;DHT22;13446;50.926;5.332;2023-07-31T11:54:20;22.10;99.90
25554;DHT22;13446;50.926;5.332;2023-07-31T11:56:46;22.20;99.90
25554;DHT22;13446;50.926;5.332;2023-07-31T11:59:11;22.30;99.90
25554;DHT22;13446;50.926;5.332;2023-07-31T12:01:38;22.60;99.90
25554;DHT22;13446;50.926;5.332;2023-07-31T12:04:03;22.60;99.90
25554;DHT22;13446;50.926;5.332;2023-07-31T12:06:33;22.60;99.90
25554;DHT22;13446;50.926;5.332;2023-07-31T12:09:03;22.70;99.90
25554;DHT22;13446;50.926;5.332;2023-07-31T12:11:29;22.80;99.90
25554;DHT22;13446;50.926;5.332;2023-07-31T12:13:54;23.00;99.90
25554;DHT22;13446;50.926;5.332;2023-07-31T12:16:20;23.00;99.90
25554;DHT22;13446;50.926;5.332;2023-07-31T12:18:45;23.20;99.90
25554;DHT22;13446;50.926;5.332;2023-07-31T12:21:14;23.30;99.90
25554;DHT22;13446;50.926;5.332;2023-07-31T12:23:40;23.20;99.90
25554;DHT22;13446;50.926;5.332;2023-07-31T12:26:08;23.10;99.90
25554;DHT22;13446;50.926;5.332;2023-07-31T12:28:35;23.00;99.90
25554;DHT22;13446;50.926;5.332;2023-07-31T12:31:01;22.90;99.90
25554;DHT22;13446;50.926;5.332;2023-07-31T12:33:34;22.70;99.90
25554;DHT22;13446;50.926;5.332;2023-07-31T12:36:03;22.40;99.90
25554;DHT22;13446;50.926;5.332;2023-07-31T12:38:29;22.70;99.90
25554;DHT22;13446;50.926;5.332;2023-07-31T12:40:55;23.60;99.90
25554;DHT22;13446;50.926;5.332;2023-07-31T12:43:21;24.10;99.90
25554;DHT22;13446;50.926;5.332;2023-07-31T12:45:47;24.60;99.90
25554;DHT22;13446;50.926;5.332;2023-07-31T12:48:13;25.10;99.90
25554;DHT22;13446;50.926;5.332;2023-07-31T12:50:39;25.10;99.90
25554;DHT22;13446;50.926;5.332;2023-07-31T12:53:05;24.60;99.90
25554;DHT22;13446;50.926;5.332;2023-07-31T12:55:30;24.30;99.90
25554;DHT22;13446;50.926;5.332;2023-07-31T12:57:56;24.00;99.90
25554;DHT22;13446;50.926;5.332;2023-07-31T13:00:22;23.80;99.90
25554;DHT22;13446;50.926;5.332;2023-07-31T13:02:47;23.80;99.90
25554;DHT22;13446;50.926;5.332;2023-07-31T13:05:13;23.50;99.90
25554;DHT22;13446;50.926;5.332;2023-07-31T13:07:39;23.50;99.90
25554;DHT22;13446;50.926;5.332;2023-07-31T13:10:05;23.30;99.90
25554;DHT22;13446;50.926;5.332;2023-07-31T13:12:31;23.00;99.90
25554;DHT22;13446;50.926;5.332;2023-07-31T13:14:57;22.80;99.90
25554;DHT22;13446;50.926;5.332;2023-07-31T13:17:23;22.60;99.90
25554;DHT22;13446;50.926;5.332;2023-07-31T13:19:49;22.60;99.90
25554;DHT22;13446;50.926;5.332;2023-07-31T13:22:14;22.50;99.90
25554;DHT22;13446;50.926;5.332;2023-07-31T13:24:40;22.40;99.90
25554;DHT22;13446;50.926;5.332;2023-07-31T13:27:05;22.30;99.90
25554;DHT22;13446;50.926;5.332;2023-07-31T13:29:31;22.00;99.90
25554;DHT22;13446;50.926;5.332;2023-07-31T13:31:57;22.00;99.90
25554;DHT22;13446;50.926;5.332;2023-07-31T13:34:23;21.90;99.90
25554;DHT22;13446;50.926;5.332;2023-07-31T13:36:48;21.90;99.90
25554;DHT22;13446;50.926;5.332;2023-07-31T13:39:14;22.00;99.90
25554;DHT22;13446;50.926;5.332;2023-07-31T13:41:40;22.00;99.90
25554;DHT22;13446;50.926;5.332;2023-07-31T13:44:05;22.00;99.90
25554;DHT22;13446;50.926;5.332;2023-07-31T13:46:31;22.10;99.90
25554;DHT22;13446;50.926;5.332;2023-07-31T13:48:58;22.20;99.90
25554;DHT22;13446;50.926;5.332;2023-07-31T13:51:25;22.10;99.90
25554;DHT22;13446;50.926;5.332;2023-07-31T13:53:50;22.10;99.90
25554;DHT22;13446;50.926;5.332;2023-07-31T13:56:16;22.10;99.90
25554;DHT22;13446;50.926;5.332;2023-07-31T13:58:42;22.00;99.90
25554;DHT22;13446;50.926;5.332;2023-07-31T14:01:07;21.90;99.90
25554;DHT22;13446;50.926;5.332;2023-07-31T14:03:33;21.90;99.90
25554;DHT22;13446;50.926;5.332;2023-07-31T14:05:58;21.80;99.90
25554;DHT22;13446;50.926;5.332;2023-07-31T14:08:24;21.60;99.90
25554;DHT22;13446;50.926;5.332;2023-07-31T14:10:49;21.60;99.90
25554;DHT22;13446;50.926;5.332;2023-07-31T14:13:15;21.70;99.90
25554;DHT22;13446;50.926;5.332;2023-07-31T14:15:41;21.60;99.90
25554;DHT22;13446;50.926;5.332;2023-07-31T14:18:07;21.50;99.90
25554;DHT22;13446;50.926;5.332;2023-07-31T14:20:33;21.60;99.90
25554;DHT22;13446;50.926;5.332;2023-07-31T14:22:59;21.50;99.90
25554;DHT22;13446;50.926;5.332;2023-07-31T14:25:24;21.40;99.90
25554;DHT22;13446;50.926;5.332;2023-07-31T14:27:50;21.20;99.90
25554;DHT22;13446;50.926;5.332;2023-07-31T14:30:16;21.10;99.90
25554;DHT22;13446;50.926;5.332;2023-07-31T14:32:42;21.00;99.90
25554;DHT22;13446;50.926;5.332;2023-07-31T14:35:08;21.00;99.90
25554;DHT22;13446;50.926;5.332;2023-07-31T14:37:40;20.90;99.90
25554;DHT22;13446;50.926;5.332;2023-07-31T14:40:06;20.90;99.90
25554;DHT22;13446;50.926;5.332;2023-07-31T14:42:32;20.80;99.90
25554;DHT22;13446;50.926;5.332;2023-07-31T14:44:58;20.80;99.90
25554;DHT22;13446;50.926;5.332;2023-07-31T14:47:23;20.70;99.90
25554;DHT22;13446;50.926;5.332;2023-07-31T14:49:49;20.50;99.90
25554;DHT22;13446;50.926;5.332;2023-07-31T14:52:14;20.50;99.90
25554;DHT22;13446;50.926;5.332;2023-07-31T14:54:40;20.50;99.90
25554;DHT22;13446;50.926;5.332;2023-07-31T14:57:05;20.70;99.90
25554;DHT22;13446;50.926;5.332;2023-07-31T14:59:31;20.70;99.90
25554;DHT22;13446;50.926;5.332;2023-07-31T15:01:57;20.60;99.90
25554;DHT22;13446;50.926;5.332;2023-07-31T15:04:22;20.60;99.90
25554;DHT22;13446;50.926;5.332;2023-07-31T15:06:49;20.50;99.90
25554;DHT22;13446;50.926;5.332;2023-07-31T15:09:15;20.40;99.90
25554;DHT22;13446;50.926;5.332;2023-07-31T15:11:40;20.50;99.90
25554;DHT22;13446;50.926;5.332;2023-07-31T15:14:06;20.20;99.90
25554;DHT22;13446;50.926;5.332;2023-07-31T15:16:31;20.20;99.90
25554;DHT22;13446;50.926;5.332;2023-07-31T15:18:57;20.10;99.90
25554;DHT22;13446;50.926;5.332;2023-07-31T15:21:23;20.10;99.90
25554;DHT22;13446;50.926;5.332;2023-07-31T15:23:48;20.10;99.90
25554;DHT22;13446;50.926;5.332;2023-07-31T15:26:14;20.10;99.90
25554;DHT22;13446;50.926;5.332;2023-07-31T15:28:40;20.00;99.90
25554;DHT22;13446;50.926;5.332;2023-07-31T15:31:06;20.00;99.90